Time;durP1;ratioP1;P1;durP2;ratioP2;P2;SDS_P1;SDS_P2;PMS_P1;PMS_P2;Temp;Humidity;BMP_temperature;BMP_pressure;BME280_temperature;BME280_humidity;BME280_pressure;Samples;Min_cycle;Max_cycle;Signal;HPM_P1;HPM_P2
2021/12/24 00:00:39;;;;;;;;;25.25;24.00;;;;;11.25;69.59;100457.50;5076858;28;45750;-61
2021/12/24 00:03:05;;;;;;;;;31.00;29.50;;;;;11.21;69.17;100447.03;5058533;28;45684;-60
2021/12/24 00:05:31;;;;;;;;;38.00;30.00;;;;;11.25;69.48;100450.34;5076782;28;45427;-61
2021/12/24 00:07:57;;;;;;;;;33.50;28.25;;;;;11.25;69.80;100465.47;5076308;28;45467;-59
2021/12/24 00:10:24;;;;;;;;;25.00;25.00;;;;;11.22;69.66;100467.38;5076469;28;45394;-58
2021/12/24 00:12:58;;;;;;;;;29.50;26.75;;;;;11.22;69.82;100451.41;5077133;28;45516;-59
2021/12/24 00:17:52;;;;;;;;;30.75;24.00;;;;;11.23;69.83;100461.09;5076686;28;45249;-60
2021/12/24 00:36:32;;;;;;;;;25.50;23.50;;;;;11.29;70.32;100437.69;5076147;28;45451;-61
2021/12/24 00:38:57;;;;;;;;;34.75;28.25;;;;;11.30;70.02;100436.75;5076095;28;45381;-60
2021/12/24 00:41:23;;;;;;;;;33.75;27.75;;;;;11.31;70.16;100430.47;5076701;28;45381;-61
2021/12/24 00:43:48;;;;;;;;;30.00;26.75;;;;;11.30;70.42;100429.63;5076598;28;45627;-60
2021/12/24 00:46:13;;;;;;;;;35.00;26.50;;;;;11.28;70.24;100418.22;5076053;28;45598;-60
2021/12/24 00:48:39;;;;;;;;;35.75;24.25;;;;;11.32;70.05;100416.22;5057781;28;45915;-61
2021/12/24 00:56:11;;;;;;;;;29.50;24.00;;;;;11.36;70.10;100417.75;5075865;28;46082;-59
2021/12/24 00:58:37;;;;;;;;;26.50;26.25;;;;;11.34;70.34;100404.53;5075919;28;45468;-60
2021/12/24 01:01:05;;;;;;;;;34.75;28.00;;;;;11.34;70.36;100396.56;5057793;28;45335;-60
2021/12/24 01:03:31;;;;;;;;;25.25;21.00;;;;;11.36;70.35;100399.13;5076116;28;45251;-60
2021/12/24 01:05:57;;;;;;;;;27.75;20.75;;;;;11.38;70.49;100386.56;5075557;28;45250;-59
2021/12/24 01:08:23;;;;;;;;;28.25;22.50;;;;;11.37;69.97;100368.88;5075991;28;45322;-59
2021/12/24 01:10:53;;;;;;;;;28.75;26.50;;;;;11.36;70.20;100367.16;5075875;27;45268;-63
2021/12/24 01:13:19;;;;;;;;;23.75;23.50;;;;;11.33;70.15;100368.22;5076217;27;45504;-60
2021/12/24 01:15:58;;;;;;;;;30.75;29.50;;;;;11.36;70.19;100372.50;5075652;27;46333;-61
2021/12/24 01:23:44;;;;;;;;;26.50;24.25;;;;;11.40;70.60;100374.00;5075913;28;45842;-61
2021/12/24 01:26:16;;;;;;;;;28.50;24.25;;;;;11.40;69.83;100360.69;5075433;28;46178;-61
2021/12/24 01:42:41;;;;;;;;;19.00;17.00;;;;;11.30;70.34;100372.84;5058532;28;45348;-62
2021/12/24 01:45:26;;;;;;;;;29.50;28.00;;;;;11.35;69.88;100371.63;5058736;28;45417;-62
2021/12/24 01:47:55;;;;;;;;;26.00;20.75;;;;;11.33;70.14;100373.53;5058447;28;45406;-60
2021/12/24 01:50:23;;;;;;;;;33.00;28.75;;;;;11.35;69.91;100376.09;5040437;28;45565;-59
2021/12/24 01:52:50;;;;;;;;;31.50;27.00;;;;;11.30;70.04;100375.53;5058573;28;45287;-62
2021/12/24 01:55:17;;;;;;;;;28.00;26.50;;;;;11.29;69.45;100376.47;5058642;28;45331;-62
2021/12/24 01:57:43;;;;;;;;;23.00;23.00;;;;;11.27;69.98;100378.38;5058374;28;45472;-61
2021/12/24 02:00:14;;;;;;;;;29.25;27.00;;;;;11.26;69.81;100374.00;5058281;28;45345;-60
2021/12/24 02:02:40;;;;;;;;;29.00;27.25;;;;;11.19;70.31;100365.53;5058369;28;45379;-61
2021/12/24 02:05:06;;;;;;;;;37.50;27.25;;;;;11.21;69.67;100361.84;5058953;28;45612;-60
2021/12/24 02:07:31;;;;;;;;;35.00;29.25;;;;;11.16;70.23;100366.59;5072092;28;46037;-61
2021/12/24 02:09:57;;;;;;;;;24.50;16.00;;;;;11.13;69.95;100363.28;5079221;28;45480;-60
2021/12/24 02:12:24;;;;;;;;;35.25;27.25;;;;;11.18;70.27;100370.00;5060625;28;45326;-61
2021/12/24 02:14:53;;;;;;;;;32.50;27.50;;;;;11.19;70.59;100369.06;5078988;28;45256;-58
2021/12/24 02:17:42;;;;;;;;;33.75;25.50;;;;;11.19;70.00;100369.06;5078285;28;45885;-61
2021/12/24 02:28:38;;;;;;;;;28.25;26.25;;;;;11.17;70.64;100346.16;5078301;28;45288;-60
2021/12/24 02:31:10;;;;;;;;;26.50;25.75;;;;;11.15;70.34;100346.25;5078040;28;45304;-60
2021/12/24 02:33:35;;;;;;;;;30.25;23.75;;;;;11.15;70.16;100353.38;5078156;28;45232;-63
2021/12/24 02:36:01;;;;;;;;;28.50;26.75;;;;;11.15;69.99;100348.91;5078226;28;45543;-61
2021/12/24 02:38:26;;;;;;;;;27.50;24.50;;;;;11.13;70.51;100356.13;5078107;28;46090;-62
2021/12/24 02:40:52;;;;;;;;;29.50;27.00;;;;;11.07;70.08;100345.88;5078083;28;45311;-61
2021/12/24 02:43:21;;;;;;;;;33.00;26.00;;;;;11.12;70.33;100346.44;5078026;28;45358;-60
2021/12/24 02:45:48;;;;;;;;;28.50;23.75;;;;;11.10;70.36;100345.69;5059328;28;45390;-61
2021/12/24 02:56:23;;;;;;;;;27.25;23.00;;;;;11.08;70.24;100331.63;5078016;28;45299;-61
2021/12/24 02:58:48;;;;;;;;;25.00;23.25;;;;;11.07;70.95;100324.59;5077583;28;45307;-60
2021/12/24 03:01:18;;;;;;;;;27.50;24.00;;;;;11.08;70.69;100328.97;5077482;28;45263;-60
2021/12/24 03:03:48;;;;;;;;;29.00;26.25;;;;;11.10;70.52;100332.38;5077810;28;45444;-60
2021/12/24 03:06:14;;;;;;;;;33.75;25.25;;;;;11.08;70.81;100323.66;5077647;28;45457;-60
2021/12/24 03:08:40;;;;;;;;;33.50;24.25;;;;;11.08;70.47;100338.75;5077464;27;45526;-62
2021/12/24 03:11:05;;;;;;;;;33.25;30.25;;;;;11.06;70.58;100330.84;5077149;27;45393;-63
2021/12/24 03:13:32;;;;;;;;;33.00;27.75;;;;;11.10;70.22;100337.72;5059030;27;45349;-60
2021/12/24 03:15:59;;;;;;;;;28.50;24.25;;;;;11.09;70.43;100336.00;5078099;27;45655;-60
2021/12/24 03:18:28;;;;;;;;;32.50;31.50;;;;;11.09;70.49;100333.34;5076587;28;45713;-60
2021/12/24 03:21:06;;;;;;;;;27.00;26.75;;;;;11.06;70.36;100322.84;5077356;28;45378;-60
2021/12/24 03:23:39;;;;;;;;;33.25;25.00;;;;;11.07;70.66;100324.59;5059119;28;45367;-60
2021/12/24 03:26:06;;;;;;;;;28.25;24.75;;;;;11.09;70.51;100316.50;5077560;27;45517;-60
2021/12/24 03:28:32;;;;;;;;;37.00;28.75;;;;;11.04;70.57;100314.13;5077107;28;46550;-59
2021/12/24 03:30:59;;;;;;;;;31.50;26.00;;;;;11.05;70.50;100321.16;5076541;27;45289;-59
2021/12/24 03:33:24;;;;;;;;;28.25;24.00;;;;;11.07;70.54;100318.41;5077292;28;45285;-60
2021/12/24 03:35:50;;;;;;;;;31.00;26.00;;;;;11.06;70.64;100309.56;5077191;28;45587;-61
2021/12/24 03:38:15;;;;;;;;;31.25;27.25;;;;;11.07;70.43;100308.63;5077150;28;45470;-60
2021/12/24 03:40:41;;;;;;;;;33.00;28.00;;;;;11.11;70.75;100303.97;5077037;28;45318;-61
2021/12/24 03:43:06;;;;;;;;;27.00;27.00;;;;;11.09;70.26;100304.06;5076849;28;45704;-60
2021/12/24 03:45:43;;;;;;;;;24.25;19.75;;;;;11.10;70.41;100303.09;5077525;28;45707;-60
2021/12/24 03:48:38;;;;;;;;;26.75;24.75;;;;;11.10;70.14;100287.13;5076645;28;45535;-61
2021/12/24 03:51:23;;;;;;;;;27.75;23.00;;;;;11.15;70.37;100290.34;5062834;28;45370;-61
2021/12/24 03:56:35;;;;;;;;;21.50;19.25;;;;;11.12;70.44;100292.38;5076682;28;45346;-62
2021/12/24 03:59:00;;;;;;;;;24.25;22.25;;;;;11.06;70.43;100279.44;5076737;28;46328;-60
2021/12/24 04:01:26;;;;;;;;;27.00;26.75;;;;;11.08;70.47;100283.72;5076719;28;45302;-60
2021/12/24 04:03:52;;;;;;;;;31.50;31.00;;;;;11.09;71.09;100284.56;5076964;28;45344;-61
2021/12/24 04:06:18;;;;;;;;;32.50;28.75;;;;;11.07;70.98;100276.69;5076856;28;45527;-59
2021/12/24 04:08:44;;;;;;;;;32.00;29.75;;;;;11.09;71.21;100276.59;5076557;28;46261;-59
2021/12/24 04:11:09;;;;;;;;;29.25;27.00;;;;;11.09;70.83;100274.78;5076883;28;45440;-61
2021/12/24 04:13:35;;;;;;;;;33.25;27.00;;;;;11.11;70.37;100264.03;5076846;28;45423;-59
2021/12/24 04:16:01;;;;;;;;;25.75;25.75;;;;;11.12;70.54;100253.28;5077305;28;45577;-59
2021/12/24 04:26:41;;;;;;;;;33.00;29.50;;;;;11.08;70.18;100245.63;5055777;28;45411;-60
2021/12/24 04:29:07;;;;;;;;;29.50;28.25;;;;;11.07;70.21;100235.94;5076443;28;45870;-61
2021/12/24 04:31:46;;;;;;;;;34.50;27.50;;;;;11.07;69.91;100239.44;5076587;28;45291;-61
2021/12/24 04:34:13;;;;;;;;;32.50;25.75;;;;;11.04;70.49;100220.97;5076200;28;45386;-62
2021/12/24 05:03:41;;;;;;;;;28.75;24.00;;;;;10.89;72.07;100221.97;5060375;28;45402;-63
2021/12/24 05:08:42;;;;;;;;;28.50;24.50;;;;;10.89;71.60;100222.81;5077276;27;45184;-60
2021/12/24 05:11:11;;;;;;;;;28.50;23.25;;;;;10.90;71.41;100218.34;5079458;27;46525;-62
2021/12/24 05:13:38;;;;;;;;;24.50;23.50;;;;;10.94;72.23;100225.22;5061122;28;45644;-60
2021/12/24 05:16:17;;;;;;;;;28.75;25.75;;;;;10.94;71.56;100230.53;5079866;27;45417;-61
2021/12/24 05:21:42;;;;;;;;;24.00;22.00;;;;;10.91;72.09;100212.94;5079229;28;45791;-59
2021/12/24 05:24:13;;;;;;;;;28.50;24.50;;;;;10.93;71.27;100202.19;5079231;28;45342;-60
2021/12/24 05:26:40;;;;;;;;;37.00;28.50;;;;;10.96;72.04;100219.78;5079573;27;45402;-60
2021/12/24 05:29:06;;;;;;;;;27.25;27.25;;;;;10.96;71.97;100215.31;5079758;28;45543;-60
2021/12/24 05:31:33;;;;;;;;;27.00;23.50;;;;;10.93;71.83;100221.66;5078552;28;45747;-61
2021/12/24 05:33:59;;;;;;;;;27.75;23.50;;;;;10.97;72.55;100219.69;5079142;28;45351;-62
2021/12/24 05:36:26;;;;;;;;;29.00;23.50;;;;;10.95;72.38;100210.94;5060238;28;45450;-61
2021/12/24 05:38:51;;;;;;;;;25.25;21.25;;;;;10.95;72.18;100208.28;5079385;28;45224;-60
2021/12/24 05:41:21;;;;;;;;;23.75;22.50;;;;;10.96;72.38;100199.34;5079204;28;46209;-63
2021/12/24 05:43:47;;;;;;;;;25.00;21.25;;;;;10.99;72.80;100204.47;5078167;28;45425;-59
2021/12/24 05:46:12;;;;;;;;;25.00;24.50;;;;;11.01;72.40;100202.56;5060681;28;45524;-61
2021/12/24 05:48:38;;;;;;;;;23.25;19.75;;;;;11.02;72.85;100201.59;5079141;28;45383;-61
2021/12/24 05:51:04;;;;;;;;;28.50;26.00;;;;;11.00;72.36;100205.31;5079271;28;46506;-63
2021/12/24 05:53:29;;;;;;;;;25.25;22.25;;;;;11.01;73.01;100215.88;5078953;28;45422;-63
2021/12/24 05:55:55;;;;;;;;;25.50;21.75;;;;;10.99;72.88;100217.78;5079943;28;45372;-61
2021/12/24 05:58:21;;;;;;;;;25.75;22.25;;;;;10.99;73.08;100219.59;5079609;28;45165;-61
2021/12/24 06:00:48;;;;;;;;;37.50;26.25;;;;;10.95;73.55;100226.91;5078941;28;45322;-60
2021/12/24 06:03:16;;;;;;;;;23.75;23.00;;;;;10.98;73.14;100231.19;5078806;28;45545;-61
2021/12/24 06:05:42;;;;;;;;;22.75;20.00;;;;;10.99;73.77;100236.41;5078755;28;45429;-61
2021/12/24 06:08:08;;;;;;;;;25.00;23.25;;;;;10.94;73.12;100225.22;5060921;28;45361;-62
2021/12/24 06:10:34;;;;;;;;;28.25;25.75;;;;;10.99;74.14;100230.22;5078891;28;46520;-62
2021/12/24 06:13:00;;;;;;;;;32.50;25.00;;;;;10.98;74.10;100236.50;5078892;28;45373;-60
2021/12/24 06:15:27;;;;;;;;;23.75;21.75;;;;;10.96;74.04;100235.75;5078703;28;45234;-62
2021/12/24 06:17:55;;;;;;;;;29.50;29.50;;;;;10.94;73.86;100233.19;5060501;28;45317;-63
2021/12/24 06:20:22;;;;;;;;;17.25;13.75;;;;;10.89;74.38;100224.63;5076484;28;46171;-60
2021/12/24 06:22:48;;;;;;;;;36.75;23.25;;;;;10.90;75.07;100223.66;5078748;28;45269;-59
2021/12/24 06:25:14;;;;;;;;;24.00;23.25;;;;;10.79;74.81;100202.22;5078391;28;45425;-60
2021/12/24 06:27:40;;;;;;;;;26.25;22.00;;;;;10.89;75.41;100222.81;5078875;28;45357;-61
2021/12/24 06:30:07;;;;;;;;;28.50;25.25;;;;;10.88;75.79;100222.91;5078544;28;45293;-61
2021/12/24 06:32:33;;;;;;;;;26.00;23.00;;;;;10.84;75.15;100210.78;5078517;28;45236;-60
2021/12/24 06:34:58;;;;;;;;;25.75;23.00;;;;;10.87;75.99;100221.22;5078411;28;45373;-61
2021/12/24 06:37:24;;;;;;;;;29.50;24.00;;;;;10.79;76.57;100202.22;5077408;28;45572;-61
2021/12/24 06:39:50;;;;;;;;;14.00;12.75;;;;;10.78;76.57;100205.81;5078216;28;45319;-60
2021/12/24 06:42:15;;;;;;;;;24.25;21.75;;;;;10.78;77.05;100197.84;5077877;28;45352;-60
2021/12/24 06:44:41;;;;;;;;;22.75;18.50;;;;;10.77;77.07;100206.78;5059957;28;45346;-61
2021/12/24 06:47:06;;;;;;;;;27.75;26.00;;;;;10.75;77.45;100203.34;5078410;28;45647;-61
2021/12/24 06:49:32;;;;;;;;;29.25;21.00;;;;;10.75;77.09;100206.88;5059581;28;46687;-62
2021/12/24 06:51:57;;;;;;;;;21.25;21.00;;;;;10.75;77.84;100200.69;5078257;28;45488;-61
2021/12/24 06:54:23;;;;;;;;;26.50;17.00;;;;;10.70;77.92;100197.47;5078136;28;45365;-62
2021/12/24 06:56:48;;;;;;;;;23.00;21.25;;;;;10.73;77.54;100207.94;5078184;28;45525;-63
2021/12/24 06:59:14;;;;;;;;;17.75;17.75;;;;;10.73;77.43;100202.59;5076908;28;45357;-61
2021/12/24 07:01:40;;;;;;;;;24.25;18.50;;;;;10.74;77.23;100209.63;5078050;28;45431;-60
2021/12/24 07:04:07;;;;;;;;;18.50;17.50;;;;;10.70;78.07;100201.00;5077633;28;45714;-61
2021/12/24 07:06:32;;;;;;;;;16.25;14.75;;;;;10.68;77.77;100200.25;5076557;28;45359;-61
2021/12/24 07:08:58;;;;;;;;;25.00;16.75;;;;;10.68;78.15;100199.34;5077411;28;45399;-62
2021/12/24 07:11:24;;;;;;;;;21.00;19.75;;;;;10.63;78.57;100191.69;5059328;28;45255;-60
2021/12/24 07:13:50;;;;;;;;;18.00;18.00;;;;;10.69;78.60;100201.94;5077479;28;45434;-61
2021/12/24 07:16:15;;;;;;;;;16.25;11.50;;;;;10.63;78.22;100192.53;5042670;28;45385;-62
2021/12/24 07:18:41;;;;;;;;;20.00;15.75;;;;;10.59;78.19;100196.34;5077448;28;45642;-61
2021/12/24 07:21:07;;;;;;;;;16.25;12.50;;;;;10.59;78.70;100191.03;5077813;28;45447;-61
2021/12/24 07:23:32;;;;;;;;;15.75;13.75;;;;;10.62;77.95;100201.47;5077354;28;45506;-60
2021/12/24 07:25:58;;;;;;;;;19.00;17.00;;;;;10.58;78.31;100189.31;5077241;28;45542;-61
2021/12/24 07:28:24;;;;;;;;;20.50;20.25;;;;;10.63;78.76;100192.53;5058969;28;47284;-60
2021/12/24 07:30:50;;;;;;;;;22.75;18.00;;;;;10.64;78.44;100199.56;5077293;28;45453;-61
2021/12/24 07:33:15;;;;;;;;;19.75;16.25;;;;;10.64;79.16;100193.38;5076413;28;45334;-61
2021/12/24 07:35:42;;;;;;;;;19.25;19.25;;;;;10.67;78.50;100192.34;5059855;28;45551;-62
2021/12/24 07:38:09;;;;;;;;;23.25;17.00;;;;;10.67;78.93;100187.00;5077020;28;46787;-61
2021/12/24 07:40:36;;;;;;;;;23.50;20.75;;;;;10.66;78.33;100198.59;5058919;28;45363;-61
2021/12/24 07:43:04;;;;;;;;;16.75;16.00;;;;;10.63;79.32;100194.34;5058583;28;45412;-61
2021/12/24 07:45:30;;;;;;;;;19.00;15.50;;;;;10.61;79.30;100198.91;5077064;28;45628;-61
2021/12/24 07:48:09;;;;;;;;;18.50;15.75;;;;;10.57;79.59;100195.59;5057980;28;45639;-61
2021/12/24 07:53:00;;;;;;;;;15.75;12.50;;;;;10.57;79.25;100184.94;5076696;28;45355;-61
2021/12/24 07:55:26;;;;;;;;;12.00;12.00;;;;;10.58;79.16;100196.44;5077007;28;45487;-61
2021/12/24 07:57:52;;;;;;;;;12.75;12.00;;;;;10.59;78.89;100199.00;5076875;28;46482;-62
2021/12/24 08:00:22;;;;;;;;;17.50;15.00;;;;;10.58;79.28;100205.28;5076578;28;45501;-62
2021/12/24 08:02:48;;;;;;;;;11.00;9.50;;;;;10.63;79.08;100207.63;5059149;28;45340;-64
2021/12/24 08:05:14;;;;;;;;;10.00;8.00;;;;;10.64;79.38;100194.25;5076899;28;45344;-63
2021/12/24 08:07:40;;;;;;;;;14.25;11.00;;;;;10.62;78.82;100172.22;5039736;28;46193;-60
2021/12/24 08:10:06;;;;;;;;;14.00;14.00;;;;;10.66;78.96;100174.66;5075560;28;45626;-62
2021/12/24 08:12:31;;;;;;;;;16.00;10.75;;;;;10.74;78.66;100180.38;5076702;28;45460;-61
2021/12/24 08:14:57;;;;;;;;;13.00;11.25;;;;;10.76;78.42;100176.66;5076671;28;45365;-60
2021/12/24 08:17:22;;;;;;;;;8.75;7.25;;;;;10.71;78.06;100175.25;5058242;28;47540;-60
2021/12/24 08:19:48;;;;;;;;;11.25;11.25;;;;;10.78;77.82;100168.56;5076534;28;45387;-59
2021/12/24 08:22:13;;;;;;;;;8.00;7.25;;;;;10.79;78.60;100164.97;5076969;28;45418;-62
2021/12/24 08:24:39;;;;;;;;;11.75;7.75;;;;;10.83;78.08;100171.81;5075690;28;45393;-62
2021/12/24 08:27:06;;;;;;;;;10.75;10.75;;;;;10.81;77.83;100165.75;5076603;28;45467;-59
2021/12/24 08:29:32;;;;;;;;;9.00;7.50;;;;;10.85;77.62;100173.44;5076312;28;45406;-59
2021/12/24 08:31:58;;;;;;;;;8.00;6.75;;;;;10.85;78.40;100183.22;5076543;28;45307;-61
2021/12/24 08:34:23;;;;;;;;;11.50;7.00;;;;;10.83;77.82;100174.47;5076360;28;45314;-60
2021/12/24 08:36:52;;;;;;;;;8.00;6.75;;;;;10.84;78.20;100178.84;5076187;28;45401;-61
2021/12/24 08:39:19;;;;;;;;;11.75;8.75;;;;;10.87;78.07;100178.66;5057470;28;45450;-60
2021/12/24 08:41:45;;;;;;;;;10.00;6.00;;;;;10.88;78.27;100167.03;5076504;28;45437;-63
2021/12/24 08:44:11;;;;;;;;;8.00;8.00;;;;;10.92;78.02;100171.22;5075649;28;45315;-61
2021/12/24 08:46:37;;;;;;;;;12.25;9.50;;;;;10.93;78.05;100159.63;5056649;28;47612;-59
2021/12/24 08:49:04;;;;;;;;;12.00;8.00;;;;;10.96;78.39;100159.44;5075597;28;45227;-61
2021/12/24 08:51:30;;;;;;;;;12.50;10.00;;;;;10.98;77.58;100160.19;5062025;28;45434;-60
2021/12/24 08:53:55;;;;;;;;;11.25;7.50;;;;;11.02;77.25;100164.34;5037566;28;45369;-64
2021/12/24 08:56:24;;;;;;;;;6.25;6.25;;;;;11.05;77.31;100155.31;5055225;28;46133;-58
2021/12/24 08:58:49;;;;;;;;;11.50;9.75;;;;;11.05;77.67;100166.81;5055411;28;45506;-60
2021/12/24 09:01:15;;;;;;;;;5.00;3.25;;;;;11.03;77.78;100158.06;5055926;28;45345;-61
2021/12/24 09:03:41;;;;;;;;;11.00;11.00;;;;;11.13;77.38;100164.50;5054817;28;45693;-60
2021/12/24 09:06:07;;;;;;;;;8.00;8.00;;;;;11.16;77.44;100164.31;5075420;27;47997;-61
2021/12/24 09:08:32;;;;;;;;;9.33;8.67;;;;;11.22;77.84;100174.56;5075738;28;45375;-59
2021/12/24 09:11:00;;;;;;;;;12.00;8.00;;;;;11.20;77.14;100176.47;5075202;28;45465;-62
2021/12/24 09:13:25;;;;;;;;;10.33;8.00;;;;;11.19;77.13;100169.41;5072274;27;45445;-60
2021/12/24 09:15:53;;;;;;;;;11.00;11.00;;;;;11.21;77.58;100178.19;5057699;28;46505;-53
2021/12/24 09:18:20;;;;;;;;;10.00;10.00;;;;;11.18;77.33;100167.72;5074751;28;45329;-53
2021/12/24 09:20:46;;;;;;;;;11.50;9.50;;;;;11.22;77.27;100168.41;5032667;28;45478;-57
2021/12/24 09:23:12;;;;;;;;;9.67;9.67;;;;;11.26;77.48;100163.72;5057240;28;45545;-56
2021/12/24 09:25:38;;;;;;;;;12.00;11.67;;;;;11.30;76.82;100165.22;5066477;27;45500;-60
2021/12/24 09:28:04;;;;;;;;;15.67;13.67;;;;;11.34;76.74;100174.72;5062800;27;45544;-65
2021/12/24 09:30:30;;;;;;;;;13.67;11.67;;;;;11.30;76.86;100175.84;5070267;28;45576;-64
2021/12/24 09:32:56;;;;;;;;;8.50;8.50;;;;;11.29;77.26;100176.81;5072945;28;45607;-61
2021/12/24 09:35:25;;;;;;;;;12.25;11.00;;;;;11.30;77.16;100175.84;5070093;28;45934;-56
2021/12/24 09:37:50;;;;;;;;;13.25;10.75;;;;;11.31;77.06;100177.56;5066120;28;45528;-59
2021/12/24 09:40:18;;;;;;;;;10.00;9.33;;;;;11.32;77.21;100185.44;5069216;28;45676;-58
2021/12/24 09:42:44;;;;;;;;;12.50;12.00;;;;;11.30;77.13;100170.53;5064440;28;45424;-58
2021/12/24 09:45:11;;;;;;;;;11.00;11.00;;;;;11.26;77.53;100174.34;5062557;27;45620;-60
2021/12/24 09:47:37;;;;;;;;;8.67;8.67;;;;;11.30;77.04;100167.88;5067347;27;45478;-61
2021/12/24 09:50:04;;;;;;;;;11.00;8.33;;;;;11.30;77.14;100155.41;5050062;28;46549;-64
2021/12/24 09:52:30;;;;;;;;;12.00;8.67;;;;;11.39;77.04;100148.63;5067021;27;45543;-61
2021/12/24 09:54:56;;;;;;;;;8.33;8.33;;;;;11.46;77.26;100147.28;5069767;28;45541;-53
2021/12/24 09:57:21;;;;;;;;;12.50;11.50;;;;;11.50;77.20;100146.97;5070608;27;45501;-62
2021/12/24 09:59:47;;;;;;;;;14.75;13.25;;;;;11.48;77.09;100150.69;5071595;27;45455;-61
2021/12/24 10:02:18;;;;;;;;;12.00;12.00;;;;;11.45;77.08;100158.88;5055200;27;45676;-60
2021/12/24 10:04:45;;;;;;;;;11.67;11.67;;;;;11.39;76.75;100145.97;5068739;28;45462;-62
2021/12/24 10:07:13;;;;;;;;;14.67;11.33;;;;;11.47;76.96;100156.97;5066422;27;45592;-59
2021/12/24 10:09:45;;;;;;;;;13.33;13.33;;;;;11.44;77.10;100142.03;5059921;27;45423;-58
2021/12/24 10:12:14;;;;;;;;;11.00;11.00;;;;;11.55;77.02;100141.31;5077401;27;45590;-56
2021/12/24 10:15:01;;;;;;;;;12.00;12.00;;;;;11.66;76.40;100146.78;5069455;27;45458;-54
2021/12/24 10:17:34;;;;;;;;;14.00;13.67;;;;;11.69;76.45;100140.38;5084405;27;45515;-60
2021/12/24 10:20:11;;;;;;;;;18.33;12.33;;;;;11.70;76.33;100142.94;5077128;27;45805;-60
2021/12/24 10:22:49;;;;;;;;;14.00;12.25;;;;;11.65;76.67;100145.09;5082632;27;46007;-58
2021/12/24 10:25:16;;;;;;;;;13.00;11.75;;;;;11.69;76.92;100146.56;5082243;27;45528;-60
2021/12/24 10:27:43;;;;;;;;;17.00;16.00;;;;;11.71;76.30;100143.81;5063373;27;45214;-56
2021/12/24 10:30:26;;;;;;;;;16.25;12.75;;;;;11.71;75.98;100139.31;5081306;27;45754;-57
2021/12/24 10:32:55;;;;;;;;;15.25;13.50;;;;;11.69;76.62;100124.41;5076361;27;45742;-58
2021/12/24 10:35:31;;;;;;;;;12.25;12.00;;;;;11.69;76.36;100109.28;5048403;28;47501;-59
2021/12/24 10:38:14;;;;;;;;;14.00;14.00;;;;;11.70;76.34;100115.47;5052054;27;45551;-60
2021/12/24 10:40:59;;;;;;;;;12.25;11.00;;;;;11.74;75.99;100117.81;5081019;27;45517;-63
2021/12/24 10:43:39;;;;;;;;;16.33;13.67;;;;;11.70;75.48;100110.97;5074325;27;45485;-60
2021/12/24 10:46:17;;;;;;;;;12.00;10.67;;;;;11.73;76.16;100108.13;5072976;27;46325;-61
2021/12/24 10:49:04;;;;;;;;;12.50;9.00;;;;;11.73;76.13;100105.47;5055660;28;45437;-57
2021/12/24 10:54:28;;;;;;;;;14.00;11.67;;;;;11.73;76.19;100110.78;5041366;27;45510;-58
2021/12/24 10:56:55;;;;;;;;;8.67;8.67;;;;;11.74;76.08;100106.31;5071380;27;47238;-56
2021/12/24 10:59:44;;;;;;;;;12.00;10.67;;;;;11.75;76.29;100103.56;5069305;27;45374;-58
2021/12/24 11:02:11;;;;;;;;;11.00;7.33;;;;;11.82;76.06;100110.19;5069936;27;47105;-60
2021/12/24 11:04:37;;;;;;;;;13.33;9.67;;;;;11.86;75.90;100112.66;5075575;27;45796;-56
2021/12/24 11:07:06;;;;;;;;;11.00;11.00;;;;;11.85;75.93;100097.59;5075835;27;46113;-58
2021/12/24 11:09:32;;;;;;;;;14.33;13.00;;;;;11.86;75.89;100086.88;5068887;27;45334;-53
2021/12/24 11:11:58;;;;;;;;;13.33;12.00;;;;;11.90;75.95;100080.34;5072788;27;45456;-57
2021/12/24 11:14:23;;;;;;;;;13.50;12.50;;;;;11.95;75.70;100069.34;5059641;27;45557;-60
2021/12/24 11:16:49;;;;;;;;;14.33;12.00;;;;;11.96;75.59;100063.91;5067467;27;45856;-58
2021/12/24 11:19:14;;;;;;;;;17.75;14.50;;;;;11.95;75.57;100061.38;5068697;27;45398;-61
2021/12/24 11:21:40;;;;;;;;;12.00;11.00;;;;;12.06;75.67;100056.13;5072379;27;45646;-61
2021/12/24 11:24:06;;;;;;;;;13.00;11.00;;;;;12.14;75.27;100060.94;5060462;27;45811;-64
2021/12/24 11:26:40;;;;;;;;;15.00;12.33;;;;;12.12;74.49;100050.38;5053937;27;45541;-57
2021/12/24 11:29:05;;;;;;;;;12.33;12.00;;;;;12.13;75.23;100049.44;5066434;27;45386;-61
2021/12/24 11:31:32;;;;;;;;;14.00;11.00;;;;;12.13;74.91;100038.75;5073711;27;45454;-59
2021/12/24 11:33:58;;;;;;;;;14.00;13.00;;;;;12.17;75.16;100034.91;5067174;27;45528;-58
2021/12/24 11:36:27;;;;;;;;;17.75;14.00;;;;;12.22;75.37;100037.22;5052556;28;45564;-58
2021/12/24 11:38:55;;;;;;;;;13.67;13.67;;;;;12.24;74.55;100041.53;5074737;27;45794;-58
2021/12/24 11:41:25;;;;;;;;;12.67;12.33;;;;;12.24;74.73;100038.84;5062694;28;45525;-59
2021/12/24 11:43:52;;;;;;;;;16.67;15.00;;;;;12.27;74.44;100041.28;5065513;27;45496;-59
2021/12/24 11:46:20;;;;;;;;;20.00;18.75;;;;;12.28;74.69;100036.81;5040480;28;45477;-57
2021/12/24 11:48:48;;;;;;;;;22.75;19.75;;;;;12.32;74.35;100047.13;5080653;27;45496;-60
2021/12/24 11:51:16;;;;;;;;;21.25;18.00;;;;;12.32;74.29;100038.28;5074444;27;46741;-61
2021/12/24 11:53:42;;;;;;;;;25.33;14.33;;;;;12.35;74.30;100041.56;5077381;27;45589;-60
2021/12/24 11:56:11;;;;;;;;;15.00;14.67;;;;;12.31;74.78;100037.44;5076041;28;46282;-60
2021/12/24 11:58:53;;;;;;;;;14.67;12.67;;;;;12.29;74.36;100039.38;5076452;27;45499;-60
2021/12/24 12:01:21;;;;;;;;;15.00;13.00;;;;;12.29;74.45;100044.69;5074597;28;45395;-63
2021/12/24 12:03:51;;;;;;;;;15.33;14.67;;;;;12.32;74.41;100043.63;5090607;27;45631;-62
2021/12/24 12:06:17;;;;;;;;;21.00;15.33;;;;;12.35;74.17;100046.06;5091559;27;45481;-60
2021/12/24 12:08:44;;;;;;;;;20.00;16.33;;;;;12.33;74.47;100042.66;5072922;28;45588;-61
2021/12/24 12:11:24;;;;;;;;;18.00;16.67;;;;;12.36;74.27;100045.09;5053703;28;45409;-61
2021/12/24 12:14:07;;;;;;;;;18.00;17.00;;;;;12.31;74.39;100042.75;5037165;27;45889;-62
2021/12/24 12:16:38;;;;;;;;;20.67;16.67;;;;;12.27;74.35;100041.28;5094198;27;45370;-62
2021/12/24 12:19:33;;;;;;;;;19.33;15.00;;;;;12.28;74.69;100040.31;5095852;27;45219;-60
2021/12/24 12:22:32;;;;;;;;;14.67;12.67;;;;;12.33;74.85;100035.50;5096493;27;45306;-60
2021/12/24 12:25:04;;;;;;;;;21.25;18.50;;;;;12.33;74.36;100046.16;5070601;27;45342;-60
2021/12/24 12:27:39;;;;;;;;;26.25;22.75;;;;;12.32;74.56;100039.13;5074591;28;45323;-61
2021/12/24 12:30:17;;;;;;;;;19.25;18.25;;;;;12.36;74.33;100035.28;5060197;27;45367;-61
2021/12/24 12:32:42;;;;;;;;;21.75;20.25;;;;;12.42;74.67;100038.47;5096765;27;45498;-60
2021/12/24 12:35:08;;;;;;;;;16.33;15.00;;;;;12.40;73.88;100039.44;5094549;27;45595;-63
2021/12/24 12:37:53;;;;;;;;;17.33;17.33;;;;;12.37;74.16;100042.34;5096392;27;45493;-61
2021/12/24 12:40:18;;;;;;;;;18.33;15.00;;;;;12.33;74.48;100030.16;5076015;27;45409;-60
2021/12/24 12:45:20;;;;;;;;;18.33;15.00;;;;;12.27;74.29;100014.63;5096900;27;45350;-59
2021/12/24 12:47:53;;;;;;;;;19.00;13.00;;;;;12.33;74.61;100022.16;5096104;27;45445;-60
2021/12/24 12:50:20;;;;;;;;;17.33;14.67;;;;;12.31;74.29;100025.91;5077072;27;45504;-60
2021/12/24 12:52:46;;;;;;;;;14.67;14.33;;;;;12.31;74.57;100021.44;5055557;28;45285;-62
2021/12/24 12:55:34;;;;;;;;;18.33;14.00;;;;;12.34;74.46;100020.34;5055803;28;45325;-62
2021/12/24 12:58:23;;;;;;;;;20.00;15.00;;;;;12.24;74.31;100020.19;5055293;28;46250;-61
2021/12/24 13:01:15;;;;;;;;;14.67;14.33;;;;;12.27;74.39;100009.28;5092392;27;45541;-62
2021/12/24 13:03:55;;;;;;;;;14.33;14.33;;;;;12.37;73.97;99998.81;5077869;27;45586;-64
2021/12/24 13:06:41;;;;;;;;;19.33;17.33;;;;;12.38;74.08;99995.19;5092815;27;45301;-62
2021/12/24 13:09:21;;;;;;;;;19.00;14.33;;;;;12.36;73.95;99997.94;5057895;27;45442;-60